createdAt,value
2017-04-19T00:00:12.770Z,77.59
2017-04-19T00:01:23.023Z,77.69
2017-04-19T00:02:33.272Z,78.06
2017-04-19T00:03:43.527Z,78.72
2017-04-19T00:04:53.773Z,79.38
2017-04-19T00:06:04.733Z,79.48
2017-04-19T00:07:14.984Z,79.57
2017-04-19T00:08:25.242Z,79.48
2017-04-19T00:09:35.507Z,79.19
2017-04-19T00:10:45.759Z,78.91
2017-04-19T00:11:57.746Z,78.63
2017-04-19T00:13:07.691Z,79.48
2017-04-19T00:14:17.946Z,79.76
2017-04-19T00:15:28.202Z,80.14
2017-04-19T00:16:38.454Z,79.86
2017-04-19T00:17:50.494Z,79.86
2017-04-19T00:19:00.741Z,79.48
2017-04-19T00:20:10.992Z,80.05
2017-04-19T00:21:20.992Z,79.48
2017-04-19T00:22:30.615Z,78.63
2017-04-19T00:23:40.914Z,77.87
2017-04-19T00:24:51.173Z,77.69
2017-04-19T00:26:01.424Z,77.59
2017-04-19T00:27:11.369Z,77.87
2017-04-19T00:28:21.629Z,78.16
2017-04-19T00:29:31.621Z,78.06
2017-04-19T00:30:41.877Z,78.53
2017-04-19T00:31:52.133Z,78.44
2017-04-19T00:33:02.071Z,78.06
2017-04-19T00:34:12.318Z,78.25
2017-04-19T00:35:22.830Z,78.72
2017-04-19T00:36:33.089Z,78.63
2017-04-19T00:37:43.345Z,77.97
2017-04-19T00:38:53.592Z,79.1
2017-04-19T00:40:03.850Z,79.19
2017-04-19T00:41:14.153Z,79.76
2017-04-19T00:42:24.087Z,79.95
2017-04-19T00:43:34.032Z,79.67
2017-04-19T00:44:44.281Z,80.14
2017-04-19T00:45:54.242Z,79.95
2017-04-19T00:47:04.543Z,80.05
2017-04-19T00:48:15.028Z,80.05
2017-04-19T00:49:25.283Z,80.24
2017-04-19T00:50:35.540Z,79.95
2017-04-19T00:51:45.797Z,80.05
2017-04-19T00:52:56.102Z,80.24
2017-04-19T00:54:06.403Z,80.05
2017-04-19T00:55:16.652Z,80.43
2017-04-19T00:56:26.603Z,80.33
2017-04-19T00:57:36.852Z,80.52
2017-04-19T00:58:47.113Z,80.99
2017-04-19T00:59:57.368Z,80.9
2017-04-19T01:01:07.627Z,80.52
2017-04-19T01:02:17.877Z,80.85
2017-04-19T01:03:28.130Z,80.9
2017-04-19T01:04:38.376Z,80.48
2017-04-19T01:05:48.634Z,80.29
2017-04-19T01:06:58.888Z,80.33
2017-04-19T01:08:09.138Z,80.05
2017-04-19T01:09:19.394Z,80.33
2017-04-19T01:10:29.654Z,80.99
2017-04-19T01:11:40.081Z,80.05
2017-04-19T01:12:50.588Z,79.95
2017-04-19T01:14:00.525Z,80.43
2017-04-19T01:15:10.465Z,80.24
2017-04-19T01:16:20.716Z,80.14
2017-04-19T01:17:30.963Z,80.71
2017-04-19T01:18:41.220Z,80.9
2017-04-19T01:19:51.157Z,80.05
2017-04-19T01:21:01.405Z,80.33
2017-04-19T01:22:11.654Z,81.18
2017-04-19T01:23:21.592Z,80.9
2017-04-19T01:24:31.523Z,80.62
2017-04-19T01:25:41.775Z,81.27
2017-04-19T01:26:52.026Z,80.99
2017-04-19T01:28:01.964Z,80.43
2017-04-19T01:29:12.218Z,80.99
2017-04-19T01:30:22.481Z,80.48
2017-04-19T01:31:32.737Z,80.71
2017-04-19T01:32:42.670Z,80.71
2017-04-19T01:33:52.932Z,80.71
2017-04-19T01:35:03.184Z,80.99
2017-04-19T01:36:13.125Z,80.85
2017-04-19T01:37:23.375Z,80.1
2017-04-19T01:38:33.311Z,80.29
2017-04-19T01:39:43.562Z,79.91
2017-04-19T01:40:53.498Z,80.48
2017-04-19T01:42:03.755Z,80.57
2017-04-19T01:43:13.695Z,80.85
2017-04-19T01:44:23.955Z,80.85
2017-04-19T01:45:34.209Z,80.95
2017-04-19T01:46:44.464Z,80.57
2017-04-19T01:47:54.716Z,80.57
2017-04-19T01:49:04.689Z,80.48
2017-04-19T01:50:14.633Z,80.57
2017-04-19T01:51:24.888Z,80.57
2017-04-19T01:52:34.824Z,80.38
2017-04-19T01:53:44.760Z,80.29
2017-04-19T01:54:54.708Z,80.29
2017-04-19T01:56:04.960Z,80.19
2017-04-19T01:57:14.581Z,80.85
2017-04-19T01:58:24.518Z,80.66
2017-04-19T01:59:34.769Z,81.23
2017-04-19T02:00:45.275Z,80.66
2017-04-19T02:01:55.910Z,80
2017-04-19T02:03:05.942Z,80.1
2017-04-19T02:04:16.198Z,80.19
2017-04-19T02:05:26.450Z,79.91
2017-04-19T02:06:36.389Z,80.48
2017-04-19T02:07:46.643Z,79.91
2017-04-19T02:08:56.915Z,80
2017-04-19T02:10:07.163Z,80
2017-04-19T02:11:16.791Z,80.19
2017-04-19T02:12:27.041Z,80.1
2017-04-19T02:13:36.977Z,79.91
2017-04-19T02:14:47.237Z,79.72
2017-04-19T02:15:57.486Z,79.72
2017-04-19T02:17:07.427Z,80
2017-04-19T02:18:17.680Z,80
2017-04-19T02:19:27.939Z,79.91
2017-04-19T02:20:37.929Z,79.44
2017-04-19T02:21:48.177Z,79.44
2017-04-19T02:22:58.126Z,78.97
2017-04-19T02:24:08.381Z,79.53
2017-04-19T02:25:18.641Z,78.87
2017-04-19T02:26:28.890Z,79.06
2017-04-19T02:27:39.144Z,79.35
2017-04-19T02:28:49.414Z,79.25
2017-04-19T02:29:59.713Z,79.06
2017-04-19T02:31:10.005Z,79.25
2017-04-19T02:32:20.251Z,79.82
2017-04-19T02:33:30.501Z,79.72
2017-04-19T02:34:40.761Z,79.82
2017-04-19T02:35:50.707Z,79.91
2017-04-19T02:37:00.965Z,79.91
2017-04-19T02:38:10.588Z,80.1
2017-04-19T02:39:20.838Z,80.48
2017-04-19T02:40:30.777Z,80
2017-04-19T02:41:41.030Z,80.1
2017-04-19T02:42:50.650Z,80.19
2017-04-19T02:44:00.907Z,79.91
2017-04-19T02:45:11.199Z,79.91
2017-04-19T02:46:21.452Z,80.1
2017-04-19T02:47:31.703Z,80.29
2017-04-19T02:48:41.652Z,80.19
2017-04-19T02:49:51.905Z,80.38
2017-04-19T02:51:02.161Z,80.29
2017-04-19T02:52:12.410Z,80
2017-04-19T02:53:22.342Z,80
2017-04-19T02:54:32.596Z,80
2017-04-19T02:55:42.215Z,80
2017-04-19T02:56:52.558Z,80.57
2017-04-19T02:58:02.616Z,80.95
2017-04-19T02:59:12.743Z,80.19
2017-04-19T03:00:23.186Z,79.72
2017-04-19T03:01:33.122Z,79.91
2017-04-19T03:02:43.059Z,79.82
2017-04-19T03:03:53.314Z,79.72
2017-04-19T03:05:03.255Z,79.53
2017-04-19T03:06:13.197Z,80
2017-04-19T03:07:23.446Z,80.1
2017-04-19T03:08:33.699Z,80.19
2017-04-19T03:09:43.959Z,80.48
2017-04-19T03:10:54.209Z,80.1
2017-04-19T03:12:04.455Z,79.72
2017-04-19T03:13:14.713Z,80.1
2017-04-19T03:14:24.962Z,80.1
2017-04-19T03:15:35.212Z,79.91
2017-04-19T03:16:45.459Z,80
2017-04-19T03:17:55.714Z,79.91
2017-04-19T03:19:05.964Z,79.53
2017-04-19T03:20:16.216Z,79.91
2017-04-19T03:21:26.470Z,79.35
2017-04-19T03:22:36.717Z,79.82
2017-04-19T03:23:46.670Z,79.44
2017-04-19T03:24:56.918Z,79.53
2017-04-19T03:26:07.259Z,79.91
2017-04-19T03:27:17.509Z,79.63
2017-04-19T03:28:27.761Z,79.53
2017-04-19T03:29:38.010Z,78.68
2017-04-19T03:30:47.637Z,78.68
2017-04-19T03:31:57.889Z,78.5
2017-04-19T03:33:08.134Z,78.78
2017-04-19T03:34:18.384Z,77.74
2017-04-19T03:35:28.647Z,78.31
2017-04-19T03:36:38.583Z,77.93
2017-04-19T03:37:48.829Z,78.02
2017-04-19T03:38:58.763Z,77.64
2017-04-19T03:40:09.016Z,77.93
2017-04-19T03:41:19.266Z,77.93
2017-04-19T03:42:29.518Z,78.12
2017-04-19T03:43:39.454Z,78.02
2017-04-19T03:44:49.707Z,78.02
2017-04-19T03:45:59.961Z,78.78
2017-04-19T03:47:10.223Z,78.78
2017-04-19T03:48:20.470Z,78.68
2017-04-19T03:49:30.410Z,78.31
2017-04-19T03:50:40.663Z,78.78
2017-04-19T03:51:50.924Z,78.31
2017-04-19T03:53:00.864Z,78.12
2017-04-19T03:54:10.913Z,78.68
2017-04-19T03:55:21.167Z,78.68
2017-04-19T03:56:31.418Z,78.21
2017-04-19T03:57:41.367Z,78.55
2017-04-19T03:58:51.310Z,78.4
2017-04-19T04:00:01.571Z,79.44
2017-04-19T04:01:11.822Z,79.63
2017-04-19T04:02:22.077Z,78.59
2017-04-19T04:03:32.012Z,78.4
2017-04-19T04:04:41.947Z,78.97
2017-04-19T04:05:52.194Z,78.78
2017-04-19T04:07:02.444Z,79.06
2017-04-19T04:08:12.699Z,78.59
2017-04-19T04:09:22.946Z,77.83
2017-04-19T04:10:33.198Z,77.93
2017-04-19T04:11:43.452Z,78.02
2017-04-19T04:12:53.703Z,78.59
2017-04-19T04:14:03.968Z,79.44
2017-04-19T04:15:14.226Z,78.97
2017-04-19T04:16:24.478Z,78.78
2017-04-19T04:17:34.732Z,78.5
2017-04-19T04:18:44.679Z,78.78
2017-04-19T04:19:54.617Z,78.02
2017-04-19T04:21:04.872Z,78.78
2017-04-19T04:22:15.124Z,79.82
2017-04-19T04:23:25.239Z,79.35
2017-04-19T04:24:35.371Z,78.59
2017-04-19T04:25:45.623Z,79.25
2017-04-19T04:26:55.876Z,78.68
2017-04-19T04:28:06.130Z,78.02
2017-04-19T04:29:16.378Z,78.02
2017-04-19T04:30:26.630Z,78.31
2017-04-19T04:31:36.874Z,78.02
2017-04-19T04:32:46.816Z,78.31
2017-04-19T04:33:57.108Z,78.12
2017-04-19T04:35:07.360Z,78.4
2017-04-19T04:36:17.613Z,77.83
2017-04-19T04:37:27.861Z,77.74
2017-04-19T04:38:38.117Z,77.93
2017-04-19T04:39:48.047Z,77.26
2017-04-19T04:40:58.301Z,77.74
2017-04-19T04:42:08.566Z,77.64
2017-04-19T04:43:18.819Z,77.26
2017-04-19T04:44:28.757Z,76.89
2017-04-19T04:45:39.007Z,77.08
2017-04-19T04:46:49.257Z,77.55
2017-04-19T04:47:59.190Z,77.45
2017-04-19T04:49:09.125Z,77.55
2017-04-19T04:50:19.451Z,77.93
2017-04-19T04:51:29.078Z,77.64
2017-04-19T04:52:39.323Z,77.36
2017-04-19T04:53:49.627Z,77.36
2017-04-19T04:54:59.879Z,77.08
2017-04-19T04:56:10.133Z,77.55
2017-04-19T04:57:20.388Z,77.93
2017-04-19T04:58:30.325Z,77.17
2017-04-19T04:59:40.576Z,76.98
2017-04-19T05:00:50.863Z,76.79
2017-04-19T05:02:01.114Z,76.61
2017-04-19T05:03:11.053Z,77.45
2017-04-19T05:04:21.310Z,76.98
2017-04-19T05:05:31.247Z,77.17
2017-04-19T05:06:41.499Z,76.23
2017-04-19T05:07:51.757Z,76.23
2017-04-19T05:09:01.700Z,76.14
2017-04-19T05:10:11.646Z,75.95
2017-04-19T05:11:21.618Z,76.32
2017-04-19T05:12:31.560Z,76.32
2017-04-19T05:13:41.810Z,76.14
2017-04-19T05:14:52.060Z,76.79
2017-04-19T05:16:02.318Z,76.61
2017-04-19T05:17:12.569Z,76.32
2017-04-19T05:18:22.822Z,76.14
2017-04-19T05:19:32.662Z,76.23
2017-04-19T05:20:42.956Z,76.79
2017-04-19T05:21:53.203Z,76.61
2017-04-19T05:23:03.141Z,76.7
2017-04-19T05:24:13.075Z,76.89
2017-04-19T05:25:23.328Z,77.55
2017-04-19T05:26:33.583Z,76.89
2017-04-19T05:27:43.518Z,77.08
2017-04-19T05:28:53.459Z,77.26
2017-04-19T05:30:03.083Z,77.17
2017-04-19T05:31:13.022Z,76.89
2017-04-19T05:32:22.961Z,77.08
2017-04-19T05:33:32.591Z,77.17
2017-04-19T05:34:42.845Z,77.26
2017-04-19T05:35:53.097Z,77.4
2017-04-19T05:37:03.350Z,77.12
2017-04-19T05:38:13.600Z,77.69
2017-04-19T05:39:23.547Z,77.21
2017-04-19T05:40:33.803Z,77.31
2017-04-19T05:41:44.061Z,77.02
2017-04-19T05:42:54.006Z,76.36
2017-04-19T05:44:04.259Z,76.36
2017-04-19T05:45:14.514Z,75.7
2017-04-19T05:46:24.465Z,75.6
2017-04-19T05:47:34.752Z,76.36
2017-04-19T05:48:45.114Z,76.26
2017-04-19T05:49:55.367Z,76.17
2017-04-19T05:51:05.617Z,76.74
2017-04-19T05:52:15.872Z,76.55
2017-04-19T05:53:25.813Z,76.36
2017-04-19T05:54:35.753Z,76.17
2017-04-19T05:55:45.695Z,76.17
2017-04-19T05:56:55.941Z,75.6
2017-04-19T05:58:05.878Z,75.32
2017-04-19T05:59:16.131Z,76.36
2017-04-19T06:00:26.394Z,75.98
2017-04-19T06:01:36.652Z,75.51
2017-04-19T06:02:46.902Z,75.79
2017-04-19T06:03:57.155Z,75.51
2017-04-19T06:05:07.097Z,75.23
2017-04-19T06:06:17.036Z,75.13
2017-04-19T06:07:26.983Z,76.07
2017-04-19T06:08:36.925Z,75.79
2017-04-19T06:09:46.862Z,76.26
2017-04-19T06:10:57.122Z,76.36
2017-04-19T06:12:07.382Z,76.26
2017-04-19T06:13:17.326Z,76.36
2017-04-19T06:14:27.576Z,76.07
2017-04-19T06:15:37.830Z,76.93
2017-04-19T06:16:47.767Z,77.21
2017-04-19T06:17:58.016Z,77.21
2017-04-19T06:19:08.273Z,77.02
2017-04-19T06:20:18.527Z,76.64
2017-04-19T06:21:28.777Z,77.12
2017-04-19T06:22:38.403Z,77.31
2017-04-19T06:23:48.661Z,76.93
2017-04-19T06:24:58.917Z,76.55
2017-04-19T06:26:08.862Z,76.17
2017-04-19T06:27:19.156Z,75.7
2017-04-19T06:28:29.408Z,75.89
2017-04-19T06:29:39.346Z,75.98
2017-04-19T06:30:49.601Z,75.42
2017-04-19T06:31:59.855Z,75.42
2017-04-19T06:33:10.107Z,74.66
2017-04-19T06:34:20.361Z,75.23
2017-04-19T06:35:30.617Z,75.04
2017-04-19T06:36:40.873Z,75.13
2017-04-19T06:37:51.128Z,75.23
2017-04-19T06:39:01.380Z,75.23
2017-04-19T06:40:11.642Z,74.57
2017-04-19T06:41:21.890Z,74.85
2017-04-19T06:42:32.139Z,74.38
2017-04-19T06:43:42.393Z,73.24
2017-04-19T06:44:52.333Z,73.9
2017-04-19T06:46:02.593Z,74.28
2017-04-19T06:47:12.871Z,75.32
2017-04-19T06:48:22.891Z,75.32
2017-04-19T06:49:33.153Z,74.13
2017-04-19T06:50:43.431Z,73.14
2017-04-19T06:51:53.373Z,72.86
2017-04-19T06:53:03.633Z,73.09
2017-04-19T06:54:13.584Z,73.28
2017-04-19T06:55:23.839Z,72.99
2017-04-19T06:56:34.097Z,72.71
2017-04-19T06:57:44.349Z,71.77
2017-04-19T06:58:54.598Z,72.14
2017-04-19T07:00:04.543Z,72.14
2017-04-19T07:01:14.480Z,71.67
2017-04-19T07:02:24.733Z,71.2
2017-04-19T07:03:34.690Z,71.39
2017-04-19T07:04:44.943Z,71.39
2017-04-19T07:05:55.200Z,71.48
2017-04-19T07:07:05.454Z,71.48
2017-04-19T07:08:15.712Z,71.2
2017-04-19T07:09:25.653Z,71.86
2017-04-19T07:10:35.279Z,70.92
2017-04-19T07:11:45.534Z,71.3
2017-04-19T07:12:55.793Z,71.86
2017-04-19T07:14:05.731Z,71.39
2017-04-19T07:15:15.987Z,70.82
2017-04-19T07:16:26.245Z,70.73
2017-04-19T07:17:36.691Z,70.48
2017-04-19T07:18:47.122Z,70.01
2017-04-19T07:19:57.391Z,70.2
2017-04-19T07:21:07.656Z,69.91
2017-04-19T07:22:17.600Z,69.53
2017-04-19T07:23:27.854Z,70.29
2017-04-19T07:24:38.109Z,70.2
2017-04-19T07:25:48.054Z,70.48
2017-04-19T07:26:57.694Z,70.39
2017-04-19T07:28:07.985Z,70.2
2017-04-19T07:29:18.240Z,70.2
2017-04-19T07:30:28.501Z,69.63
2017-04-19T07:31:38.760Z,69.72
2017-04-19T07:32:49.015Z,69.82
2017-04-19T07:33:59.284Z,69.47
2017-04-19T07:35:09.226Z,68.52
2017-04-19T07:36:19.171Z,67.17
2017-04-19T07:37:29.426Z,67.3
2017-04-19T07:38:39.683Z,67.39
2017-04-19T07:39:49.625Z,67.49
2017-04-19T07:40:59.882Z,66.73
2017-04-19T07:42:10.136Z,66.73
2017-04-19T07:43:20.402Z,66.35
2017-04-19T07:44:30.830Z,66.25
2017-04-19T07:45:40.814Z,65.97
2017-04-19T07:46:51.091Z,66.16
2017-04-19T07:48:01.035Z,65.5
2017-04-19T07:49:11.294Z,66.35
2017-04-19T07:50:21.241Z,65.21
2017-04-19T07:51:31.503Z,65.12
2017-04-19T07:52:41.763Z,64.74
2017-04-19T07:53:51.715Z,64.55
2017-04-19T07:55:01.651Z,64.74
2017-04-19T07:56:11.593Z,65.02
2017-04-19T07:57:21.854Z,63.79
2017-04-19T07:58:32.124Z,64.36
2017-04-19T07:59:42.074Z,64.55
2017-04-19T08:00:52.014Z,64.83
2017-04-19T08:02:01.645Z,65.12
2017-04-19T08:03:10.960Z,65.21
2017-04-19T08:04:20.900Z,65.25
2017-04-19T08:05:30.848Z,65.44
2017-04-19T08:06:40.473Z,65.91
2017-04-19T08:07:50.096Z,64.96
2017-04-19T08:08:59.406Z,65.34
2017-04-19T08:10:09.635Z,65.34
2017-04-19T08:11:19.577Z,65.53
2017-04-19T08:12:29.831Z,65.91
2017-04-19T08:13:40.089Z,65.44
2017-04-19T08:14:50.347Z,65.06
2017-04-19T08:15:59.662Z,65.44
2017-04-19T08:17:09.297Z,64.9
2017-04-19T08:18:19.565Z,64.81
2017-04-19T08:19:29.859Z,64.23
2017-04-19T08:20:39.497Z,64.81
2017-04-19T08:21:49.752Z,65.28
2017-04-19T08:22:59.693Z,65.09
2017-04-19T08:24:09.320Z,65.28
2017-04-19T08:25:18.633Z,65.37
2017-04-19T08:26:28.576Z,65.28
2017-04-19T08:27:38.208Z,64.33
2017-04-19T08:28:47.831Z,64.52
2017-04-19T08:29:58.088Z,64.71
2017-04-19T08:31:08.041Z,65.28
2017-04-19T08:32:17.985Z,65.56
2017-04-19T08:33:27.932Z,65.09
2017-04-19T08:34:38.186Z,64.81
2017-04-19T08:35:48.124Z,64.14
2017-04-19T08:36:57.797Z,64.46
2017-04-19T08:38:06.796Z,64.84
2017-04-19T08:39:16.740Z,64.55
2017-04-19T08:40:26.686Z,65.12
2017-04-19T08:41:36.321Z,65.12
2017-04-19T08:42:46.578Z,64.65
2017-04-19T08:43:56.831Z,64.84
2017-04-19T08:45:06.458Z,65.03
2017-04-19T08:46:16.405Z,65.69
2017-04-19T08:47:26.663Z,65.41
2017-04-19T08:48:36.920Z,65.31
2017-04-19T08:49:46.550Z,65.03
2017-04-19T08:50:56.508Z,65.41
2017-04-19T08:52:06.766Z,65.22
2017-04-19T08:53:16.395Z,65.59
2017-04-19T08:54:26.335Z,65.78
2017-04-19T08:55:36.274Z,65.41
2017-04-19T08:56:46.219Z,64.93
2017-04-19T08:57:56.479Z,65.59
2017-04-19T08:59:06.118Z,65.03
2017-04-19T09:00:16.091Z,65.12
2017-04-19T09:01:26.041Z,65.31
2017-04-19T09:02:36.298Z,64.27
2017-04-19T09:03:46.249Z,64.55
2017-04-19T09:04:55.883Z,64.65
2017-04-19T09:06:05.832Z,64.87
2017-04-19T09:07:15.456Z,64.59
2017-04-19T09:08:25.393Z,65.25
2017-04-19T09:09:35.025Z,65.34
2017-04-19T09:10:44.967Z,64.49
2017-04-19T09:11:55.262Z,63.82
2017-04-19T09:13:05.207Z,63.54
2017-04-19T09:14:15.151Z,64.68
2017-04-19T09:15:25.411Z,63.82
2017-04-19T09:16:35.358Z,63.45
2017-04-19T09:17:45.307Z,63.73
2017-04-19T09:18:54.934Z,64.97
2017-04-19T09:20:04.565Z,63.92
2017-04-19T09:21:14.199Z,62.5
2017-04-19T09:22:24.144Z,62.31
2017-04-19T09:23:34.401Z,62.5
2017-04-19T09:24:44.031Z,62.12
2017-04-19T09:25:53.661Z,62.59
2017-04-19T09:27:03.602Z,62.24
2017-04-19T09:28:13.861Z,62.24
2017-04-19T09:29:23.819Z,61.77
2017-04-19T09:30:33.453Z,61.11
2017-04-19T09:31:43.401Z,61.3
2017-04-19T09:32:53.343Z,60.25
2017-04-19T09:34:03.312Z,60.73
2017-04-19T09:35:13.380Z,60.22
2017-04-19T09:36:23.329Z,61.93
2017-04-19T09:37:33.589Z,62.4
2017-04-19T09:38:43.850Z,64.2
2017-04-19T09:39:53.799Z,64.78
2017-04-19T09:41:03.114Z,63.73
2017-04-19T09:42:13.370Z,64.17
2017-04-19T09:43:23.646Z,64.74
2017-04-19T09:44:33.586Z,64.65
2017-04-19T09:45:43.535Z,65.78
2017-04-19T09:46:53.490Z,64.36
2017-04-19T09:48:03.754Z,64.17
2017-04-19T09:49:14.008Z,63.6
2017-04-19T09:50:23.959Z,64.46
2017-04-19T09:51:34.216Z,64.74
2017-04-19T09:52:44.157Z,63.51
2017-04-19T09:53:53.790Z,64.74
2017-04-19T09:55:03.737Z,64.74
2017-04-19T09:56:13.993Z,64.36
2017-04-19T09:57:23.626Z,65.31
2017-04-19T09:58:33.570Z,64.78
2017-04-19T09:59:43.199Z,64.3
2017-04-19T10:00:52.831Z,64.49
2017-04-19T10:02:02.931Z,64.11
2017-04-19T10:03:13.069Z,63.67
2017-04-19T10:04:23.429Z,62.72
2017-04-19T10:05:33.384Z,62.72
2017-04-19T10:06:43.327Z,62.27
2017-04-19T10:07:53.587Z,62.37
2017-04-19T10:09:03.533Z,61.71
2017-04-19T10:10:13.162Z,61.9
2017-04-19T10:11:23.107Z,61.61
2017-04-19T10:12:33.362Z,60.5
2017-04-19T10:13:42.681Z,61.26
2017-04-19T10:14:52.636Z,59.27
2017-04-19T10:16:02.901Z,58.51
2017-04-19T10:17:12.536Z,58.54
2017-04-19T10:18:22.479Z,59.3
2017-04-19T10:19:32.124Z,58.44
2017-04-19T10:20:42.066Z,57.4
2017-04-19T10:21:51.698Z,55.78
2017-04-19T10:23:01.651Z,55.97
2017-04-19T10:24:11.596Z,57.24
2017-04-19T10:25:21.548Z,56.48
2017-04-19T10:26:31.808Z,54.19
2017-04-19T10:27:41.755Z,55.24
2017-04-19T10:28:52.101Z,56
2017-04-19T10:30:01.732Z,55.46
2017-04-19T10:31:11.680Z,54.98
2017-04-19T10:32:21.629Z,53.94
2017-04-19T10:33:31.887Z,53.55
2017-04-19T10:34:41.836Z,53.17
2017-04-19T10:35:52.098Z,52.63
2017-04-19T10:37:01.734Z,49.87
2017-04-19T10:38:11.693Z,48.92
2017-04-19T10:39:21.964Z,47.2
2017-04-19T10:40:32.230Z,48.42
2017-04-19T10:41:42.180Z,49.94
2017-04-19T10:42:52.450Z,49.56
2017-04-19T10:44:02.393Z,48.61
2017-04-19T10:45:12.033Z,48.8
2017-04-19T10:46:22.301Z,50.42
2017-04-19T10:47:32.558Z,50.13
2017-04-19T10:48:42.816Z,51.01
2017-04-19T10:49:53.072Z,50.44
2017-04-19T10:51:03.021Z,47.49
2017-04-19T10:52:12.654Z,45.21
2017-04-19T10:53:22.598Z,43.87
2017-04-19T10:54:32.227Z,43.49
2017-04-19T10:55:42.490Z,40.28
2017-04-19T10:56:52.586Z,39.23
2017-04-19T10:58:03.278Z,41.23
2017-04-19T10:59:13.224Z,41.52
2017-04-19T11:00:22.863Z,40.35
2017-04-19T11:01:32.826Z,40.26
2017-04-19T11:02:42.786Z,41.59
2017-04-19T11:03:53.043Z,39.02
2017-04-19T11:05:03.311Z,39.59
2017-04-19T11:06:13.590Z,39.12
2017-04-19T11:07:22.912Z,40.54
2017-04-19T11:08:33.184Z,39.86
2017-04-19T11:09:43.444Z,38.9
2017-04-19T11:10:53.386Z,39.09
2017-04-19T11:12:03.331Z,38.53
2017-04-19T11:13:12.653Z,39.09
2017-04-19T11:14:22.906Z,37.38
2017-04-19T11:15:33.167Z,38.62
2017-04-19T11:16:42.804Z,40.14
2017-04-19T11:17:53.066Z,39.19
2017-04-19T11:19:03.010Z,40.52
2017-04-19T11:20:12.961Z,38.07
2017-04-19T11:21:22.594Z,37.49
2017-04-19T11:22:32.237Z,39.02
2017-04-19T11:23:42.183Z,37.8
2017-04-19T11:24:51.509Z,39.23
2017-04-19T11:26:01.146Z,36.76
2017-04-19T11:27:11.407Z,36.37
2017-04-19T11:28:21.431Z,37.25
2017-04-19T11:29:31.701Z,36.87
2017-04-19T11:30:41.331Z,35.91
2017-04-19T11:31:51.277Z,35.82
2017-04-19T11:33:01.242Z,35.08
2017-04-19T11:34:10.880Z,35.27
2017-04-19T11:35:20.830Z,33.07
2017-04-19T11:36:31.103Z,32.69
2017-04-19T11:37:41.054Z,33.47
2017-04-19T11:38:50.690Z,34.33
2017-04-19T11:40:00.951Z,35.57
2017-04-19T11:41:10.903Z,33.78
2017-04-19T11:42:21.165Z,32.82
2017-04-19T11:43:31.116Z,31.5
2017-04-19T11:44:41.064Z,32.44
2017-04-19T11:45:51.015Z,32.74
2017-04-19T11:47:00.334Z,33.2
2017-04-19T11:48:09.658Z,32.92
2017-04-19T11:49:19.922Z,33.57
2017-04-19T11:50:30.185Z,33.28
2017-04-19T11:51:39.824Z,32.81
2017-04-19T11:52:49.895Z,34.23
2017-04-19T11:53:59.819Z,33.26
2017-04-19T11:55:09.865Z,35.57
2017-04-19T11:56:19.813Z,36.41
2017-04-19T11:57:30.083Z,34.79
2017-04-19T11:58:40.351Z,33.64
2017-04-19T11:59:50.305Z,36.03
2017-04-19T12:01:00.601Z,36.98
2017-04-19T12:02:10.586Z,38.58
2017-04-19T12:03:20.855Z,38.01
2017-04-19T12:04:31.415Z,36.1
2017-04-19T12:05:41.363Z,33.91
2017-04-19T12:06:51.311Z,33.63
2017-04-19T12:08:00.953Z,34.75
2017-04-19T12:09:11.219Z,33.9
2017-04-19T12:10:21.418Z,35.13
2017-04-19T12:11:31.364Z,33.61
2017-04-19T12:12:41.626Z,36.37
2017-04-19T12:13:51.635Z,39.04
2017-04-19T12:15:01.584Z,37.04
2017-04-19T12:16:11.846Z,33.8
2017-04-19T12:17:21.796Z,34.87
2017-04-19T12:18:32.254Z,34.87
2017-04-19T12:19:42.530Z,34.48
2017-04-19T12:20:52.477Z,35.06
2017-04-19T12:22:02.119Z,36.77
2017-04-19T12:23:12.376Z,34.77
2017-04-19T12:24:22.325Z,36.76
2017-04-19T12:25:32.607Z,35.15
2017-04-19T12:26:42.557Z,35.52
2017-04-19T12:27:52.507Z,36.39
2017-04-19T12:29:02.142Z,35.8
2017-04-19T12:30:12.087Z,36.66
2017-04-19T12:31:21.719Z,36.37
2017-04-19T12:32:31.671Z,36.37
2017-04-19T12:33:41.621Z,35.71
2017-04-19T12:34:51.567Z,36.77
2017-04-19T12:36:01.206Z,36.39
2017-04-19T12:37:11.466Z,36.68
2017-04-19T12:38:21.732Z,37.84
2017-04-19T12:39:31.685Z,36.6
2017-04-19T12:40:41.638Z,35.46
2017-04-19T12:41:51.579Z,36.05
2017-04-19T12:43:01.222Z,34.23
2017-04-19T12:44:11.484Z,33.01
2017-04-19T12:45:21.429Z,32.24
2017-04-19T12:46:31.695Z,35.39
2017-04-19T12:47:42.103Z,32.36
2017-04-19T12:48:52.632Z,29.72
2017-04-19T12:50:02.587Z,29.92
2017-04-19T12:51:12.227Z,29.44
2017-04-19T12:52:22.183Z,28.52
2017-04-19T12:53:32.134Z,28.9
2017-04-19T12:54:41.773Z,28.42
2017-04-19T12:55:51.411Z,31.16
2017-04-19T12:57:01.056Z,29.25
2017-04-19T12:58:11.328Z,29.43
2017-04-19T12:59:20.966Z,29.13
2017-04-19T13:00:30.919Z,29.61
2017-04-19T13:01:39.946Z,29.41
2017-04-19T13:02:49.584Z,28.36
2017-04-19T13:03:58.906Z,29.33
2017-04-19T13:05:09.172Z,29.73
2017-04-19T13:06:18.810Z,29.35
2017-04-19T13:07:28.762Z,29.54
2017-04-19T13:08:38.721Z,30.88
2017-04-19T13:09:48.993Z,30.69
2017-04-19T13:10:58.636Z,29.44
2017-04-19T13:12:08.903Z,28.11
2017-04-19T13:13:18.542Z,26.85
2017-04-19T13:14:28.808Z,27.44
2017-04-19T13:15:38.770Z,28.3
2017-04-19T13:16:48.416Z,27.83
2017-04-19T13:17:58.748Z,26.41
2017-04-19T13:19:08.403Z,28.52
2017-04-19T13:20:18.433Z,28.5
2017-04-19T13:21:28.385Z,26.97
2017-04-19T13:22:38.334Z,27.45
2017-04-19T13:23:48.287Z,27.73
2017-04-19T13:24:58.243Z,26.3
2017-04-19T13:26:08.199Z,27.16
2017-04-19T13:27:17.547Z,26.3
2017-04-19T13:28:27.183Z,29.36
2017-04-19T13:29:37.458Z,27.64
2017-04-19T13:30:47.103Z,27.45
2017-04-19T13:31:57.058Z,27.55
2017-04-19T13:33:06.383Z,29.73
2017-04-19T13:34:16.336Z,28.87
2017-04-19T13:35:26.288Z,27.05
2017-04-19T13:36:36.263Z,27.33
2017-04-19T13:37:46.218Z,28.38
2017-04-19T13:38:56.500Z,27.8
2017-04-19T13:40:06.139Z,29.62
2017-04-19T13:41:16.414Z,29.8
2017-04-19T13:42:26.681Z,29.32
2017-04-19T13:43:36.319Z,30.74
2017-04-19T13:44:46.275Z,31.4
2017-04-19T13:45:56.550Z,32.26
2017-04-19T13:47:06.928Z,31.21
2017-04-19T13:48:16.876Z,31.5
2017-04-19T13:49:27.207Z,30.34
2017-04-19T13:50:37.473Z,32.15
2017-04-19T13:51:47.742Z,31.56
2017-04-19T13:52:57.691Z,31.28
2017-04-19T13:54:07.326Z,31.66
2017-04-19T13:55:17.589Z,31.85
2017-04-19T13:56:27.855Z,32.73
2017-04-19T13:57:38.127Z,32.9
2017-04-19T13:58:48.388Z,32.81
2017-04-19T13:59:58.646Z,34.33
2017-04-19T14:01:08.909Z,34.05
2017-04-19T14:02:19.173Z,34.41
2017-04-19T14:03:29.435Z,34.79
2017-04-19T14:04:39.707Z,33.64
2017-04-19T14:05:49.978Z,34.03
2017-04-19T14:06:59.927Z,33.64
2017-04-19T14:08:09.874Z,34.98
2017-04-19T14:09:20.136Z,36.2
2017-04-19T14:10:30.408Z,37.65
2017-04-19T14:11:40.671Z,34.79
2017-04-19T14:12:50.999Z,36.88
2017-04-19T14:14:01.712Z,35.64
2017-04-19T14:15:11.984Z,33.17
2017-04-19T14:16:21.931Z,34.5
2017-04-19T14:17:31.591Z,34.22
2017-04-19T14:18:41.848Z,34.12
2017-04-19T14:19:52.110Z,34.31
2017-04-19T14:21:02.390Z,36.79
2017-04-19T14:22:12.343Z,35.64
2017-04-19T14:23:22.609Z,33.84
2017-04-19T14:24:32.871Z,34.12
2017-04-19T14:25:42.505Z,33.17
2017-04-19T14:26:52.457Z,34.5
2017-04-19T14:28:02.404Z,33.57
2017-04-19T14:29:12.669Z,34.14
2017-04-19T14:30:22.336Z,31.68
2017-04-19T14:31:32.598Z,31.79
2017-04-19T14:32:42.861Z,32.26
2017-04-19T14:33:53.129Z,31.71
2017-04-19T14:35:03.389Z,31.34
2017-04-19T14:36:13.343Z,31.05
2017-04-19T14:37:23.294Z,32.39
2017-04-19T14:38:33.560Z,30.38
2017-04-19T14:39:43.819Z,28.49
2017-04-19T14:40:54.080Z,28.58
2017-04-19T14:42:04.347Z,28.49
2017-04-19T14:43:14.299Z,28.97
2017-04-19T14:44:24.702Z,28.79
2017-04-19T14:45:35.006Z,27.18
2017-04-19T14:46:45.273Z,27.18
2017-04-19T14:47:55.226Z,28.63
2017-04-19T14:49:05.499Z,27.68
2017-04-19T14:50:15.766Z,26.45
2017-04-19T14:51:26.032Z,25.81
2017-04-19T14:52:36.002Z,22.46
2017-04-19T14:53:46.269Z,23.21
2017-04-19T14:54:56.534Z,23.02
2017-04-19T14:56:06.807Z,22.27
2017-04-19T14:57:17.078Z,22.27
2017-04-19T14:58:27.036Z,23.52
2017-04-19T14:59:37.303Z,24.1
2017-04-19T15:00:47.574Z,24.98
2017-04-19T15:01:57.846Z,25.17
2017-04-19T15:03:08.126Z,24.1
2017-04-19T15:04:18.400Z,24.66
2017-04-19T15:05:28.354Z,23.03
2017-04-19T15:06:38.622Z,23.03